sensor_id;sensor_type;location;lat;lon;timestamp;P1;durP1;ratioP1;P2;durP2;ratioP2
53757;SDS011;39674;59.860;30.672;2022-08-25T00:01:25;7.72;;;5.07;;
53757;SDS011;39674;59.860;30.672;2022-08-25T00:03:58;7.82;;;4.78;;
53757;SDS011;39674;59.860;30.672;2022-08-25T00:06:42;6.80;;;5.05;;
53757;SDS011;39674;59.860;30.672;2022-08-25T00:09:44;7.05;;;4.68;;
53757;SDS011;39674;59.860;30.672;2022-08-25T00:12:15;14.55;;;5.35;;
53757;SDS011;39674;59.860;30.672;2022-08-25T00:14:47;9.05;;;5.32;;
53757;SDS011;39674;59.860;30.672;2022-08-25T00:17:31;6.05;;;4.65;;
53757;SDS011;39674;59.860;30.672;2022-08-25T00:20:23;9.27;;;5.22;;
53757;SDS011;39674;59.860;30.672;2022-08-25T00:23:06;8.90;;;5.40;;
53757;SDS011;39674;59.860;30.672;2022-08-25T00:26:07;7.00;;;5.50;;
53757;SDS011;39674;59.860;30.672;2022-08-25T00:28:48;6.80;;;4.88;;
53757;SDS011;39674;59.860;30.672;2022-08-25T00:31:49;8.65;;;5.18;;
53757;SDS011;39674;59.860;30.672;2022-08-25T00:34:38;13.15;;;5.65;;
53757;SDS011;39674;59.860;30.672;2022-08-25T00:37:27;7.10;;;4.90;;
53757;SDS011;39674;59.860;30.672;2022-08-25T00:40:36;9.35;;;5.50;;
53757;SDS011;39674;59.860;30.672;2022-08-25T00:43:54;10.13;;;5.93;;
53757;SDS011;39674;59.860;30.672;2022-08-25T00:46:51;7.03;;;5.15;;
53757;SDS011;39674;59.860;30.672;2022-08-25T00:49:34;9.98;;;5.18;;
53757;SDS011;39674;59.860;30.672;2022-08-25T00:52:31;7.68;;;4.97;;
53757;SDS011;39674;59.860;30.672;2022-08-25T00:55:18;8.38;;;5.32;;
53757;SDS011;39674;59.860;30.672;2022-08-25T01:00:49;14.10;;;5.75;;
53757;SDS011;39674;59.860;30.672;2022-08-25T01:03:27;8.88;;;5.70;;
53757;SDS011;39674;59.860;30.672;2022-08-25T01:06:24;15.95;;;6.10;;
53757;SDS011;39674;59.860;30.672;2022-08-25T01:08:56;6.97;;;5.88;;
53757;SDS011;39674;59.860;30.672;2022-08-25T01:11:30;9.10;;;6.47;;
53757;SDS011;39674;59.860;30.672;2022-08-25T01:14:10;7.03;;;5.70;;
53757;SDS011;39674;59.860;30.672;2022-08-25T01:17:17;8.85;;;6.05;;
53757;SDS011;39674;59.860;30.672;2022-08-25T01:19:57;15.88;;;7.30;;
53757;SDS011;39674;59.860;30.672;2022-08-25T01:22:48;14.27;;;6.35;;
53757;SDS011;39674;59.860;30.672;2022-08-25T01:25:32;12.02;;;6.40;;
53757;SDS011;39674;59.860;30.672;2022-08-25T01:28:30;10.73;;;5.95;;
53757;SDS011;39674;59.860;30.672;2022-08-25T01:31:04;11.02;;;6.32;;
53757;SDS011;39674;59.860;30.672;2022-08-25T01:33:46;7.65;;;6.20;;
53757;SDS011;39674;59.860;30.672;2022-08-25T01:36:37;9.27;;;6.40;;
53757;SDS011;39674;59.860;30.672;2022-08-25T01:39:37;12.23;;;7.13;;
53757;SDS011;39674;59.860;30.672;2022-08-25T01:42:23;11.75;;;5.82;;
53757;SDS011;39674;59.860;30.672;2022-08-25T01:45:15;12.82;;;6.40;;
53757;SDS011;39674;59.860;30.672;2022-08-25T01:47:54;8.77;;;6.00;;
53757;SDS011;39674;59.860;30.672;2022-08-25T01:50:32;11.65;;;6.82;;
53757;SDS011;39674;59.860;30.672;2022-08-25T01:53:22;9.88;;;6.55;;
53757;SDS011;39674;59.860;30.672;2022-08-25T01:56:12;11.02;;;5.72;;
53757;SDS011;39674;59.860;30.672;2022-08-25T01:58:56;12.15;;;5.95;;
53757;SDS011;39674;59.860;30.672;2022-08-25T02:01:43;8.70;;;5.95;;
53757;SDS011;39674;59.860;30.672;2022-08-25T02:04:32;8.20;;;6.65;;
53757;SDS011;39674;59.860;30.672;2022-08-25T02:07:16;10.95;;;6.78;;
53757;SDS011;39674;59.860;30.672;2022-08-25T02:09:51;15.80;;;6.38;;
53757;SDS011;39674;59.860;30.672;2022-08-25T02:12:25;8.32;;;5.35;;
53757;SDS011;39674;59.860;30.672;2022-08-25T02:15:00;8.00;;;5.95;;
53757;SDS011;39674;59.860;30.672;2022-08-25T02:17:45;10.75;;;6.50;;
53757;SDS011;39674;59.860;30.672;2022-08-25T02:20:40;8.27;;;6.00;;
53757;SDS011;39674;59.860;30.672;2022-08-25T02:23:14;15.45;;;6.75;;
53757;SDS011;39674;59.860;30.672;2022-08-25T02:26:03;11.95;;;6.60;;
53757;SDS011;39674;59.860;30.672;2022-08-25T02:28:51;9.93;;;6.35;;
53757;SDS011;39674;59.860;30.672;2022-08-25T02:31:43;9.85;;;6.97;;
53757;SDS011;39674;59.860;30.672;2022-08-25T02:34:44;13.60;;;7.80;;
53757;SDS011;39674;59.860;30.672;2022-08-25T02:37:25;12.82;;;8.18;;
53757;SDS011;39674;59.860;30.672;2022-08-25T02:39:59;13.88;;;8.57;;
53757;SDS011;39674;59.860;30.672;2022-08-25T02:42:45;11.18;;;8.77;;
53757;SDS011;39674;59.860;30.672;2022-08-25T02:45:52;17.93;;;8.67;;
53757;SDS011;39674;59.860;30.672;2022-08-25T02:48:26;10.25;;;8.57;;
53757;SDS011;39674;59.860;30.672;2022-08-25T02:51:00;17.08;;;9.30;;
53757;SDS011;39674;59.860;30.672;2022-08-25T02:53:44;10.38;;;9.27;;
53757;SDS011;39674;59.860;30.672;2022-08-25T02:56:36;11.40;;;9.68;;
53757;SDS011;39674;59.860;30.672;2022-08-25T02:59:09;19.90;;;9.98;;
53757;SDS011;39674;59.860;30.672;2022-08-25T03:01:55;22.63;;;9.30;;
53757;SDS011;39674;59.860;30.672;2022-08-25T03:04:28;24.88;;;9.43;;
53757;SDS011;39674;59.860;30.672;2022-08-25T03:06:59;21.45;;;9.82;;
53757;SDS011;39674;59.860;30.672;2022-08-25T03:09:31;25.05;;;10.13;;
53757;SDS011;39674;59.860;30.672;2022-08-25T03:12:10;16.63;;;9.82;;
53757;SDS011;39674;59.860;30.672;2022-08-25T03:14:53;16.80;;;9.90;;
53757;SDS011;39674;59.860;30.672;2022-08-25T03:17:27;12.48;;;9.30;;
53757;SDS011;39674;59.860;30.672;2022-08-25T03:20:18;14.80;;;8.77;;
53757;SDS011;39674;59.860;30.672;2022-08-25T03:23:10;16.33;;;10.20;;
53757;SDS011;39674;59.860;30.672;2022-08-25T03:25:56;15.82;;;9.77;;
53757;SDS011;39674;59.860;30.672;2022-08-25T03:28:54;16.33;;;10.18;;
53757;SDS011;39674;59.860;30.672;2022-08-25T03:34:38;12.53;;;10.07;;
53757;SDS011;39674;59.860;30.672;2022-08-25T03:37:22;17.25;;;9.75;;
53757;SDS011;39674;59.860;30.672;2022-08-25T03:39:54;18.45;;;9.60;;
53757;SDS011;39674;59.860;30.672;2022-08-25T03:42:43;17.40;;;10.82;;
53757;SDS011;39674;59.860;30.672;2022-08-25T03:45:15;19.33;;;9.98;;
53757;SDS011;39674;59.860;30.672;2022-08-25T03:51:08;22.67;;;10.27;;
53757;SDS011;39674;59.860;30.672;2022-08-25T04:22:33;22.38;;;7.88;;
53757;SDS011;39674;59.860;30.672;2022-08-25T04:43:02;17.20;;;9.43;;
53757;SDS011;39674;59.860;30.672;2022-08-25T05:42:34;23.40;;;15.15;;
53757;SDS011;39674;59.860;30.672;2022-08-25T05:53:00;29.98;;;14.57;;
53757;SDS011;39674;59.860;30.672;2022-08-25T05:55:54;24.08;;;16.70;;
53757;SDS011;39674;59.860;30.672;2022-08-25T05:58:29;27.85;;;16.27;;
53757;SDS011;39674;59.860;30.672;2022-08-25T06:01:54;27.75;;;17.67;;
53757;SDS011;39674;59.860;30.672;2022-08-25T06:05:16;28.80;;;17.70;;
53757;SDS011;39674;59.860;30.672;2022-08-25T06:08:54;36.28;;;18.95;;
53757;SDS011;39674;59.860;30.672;2022-08-25T06:13:32;30.73;;;18.10;;
53757;SDS011;39674;59.860;30.672;2022-08-25T06:15:31;34.70;;;18.47;;
53757;SDS011;39674;59.860;30.672;2022-08-25T06:19:38;34.63;;;17.85;;
53757;SDS011;39674;59.860;30.672;2022-08-25T06:26:36;31.95;;;20.08;;
53757;SDS011;39674;59.860;30.672;2022-08-25T06:29:57;34.88;;;21.27;;
53757;SDS011;39674;59.860;30.672;2022-08-25T06:45:35;35.58;;;22.80;;
53757;SDS011;39674;59.860;30.672;2022-08-25T06:56:51;47.33;;;27.35;;
53757;SDS011;39674;59.860;30.672;2022-08-25T07:13:01;43.65;;;24.88;;
53757;SDS011;39674;59.860;30.672;2022-08-25T07:17:11;40.90;;;22.95;;
53757;SDS011;39674;59.860;30.672;2022-08-25T07:24:39;41.22;;;25.50;;
53757;SDS011;39674;59.860;30.672;2022-08-25T07:27:55;37.47;;;25.92;;
53757;SDS011;39674;59.860;30.672;2022-08-25T07:45:02;34.65;;;21.80;;
53757;SDS011;39674;59.860;30.672;2022-08-25T07:48:35;31.95;;;21.95;;
53757;SDS011;39674;59.860;30.672;2022-08-25T07:52:06;36.17;;;20.63;;
53757;SDS011;39674;59.860;30.672;2022-08-25T07:55:14;35.30;;;24.83;;
53757;SDS011;39674;59.860;30.672;2022-08-25T07:59:06;40.72;;;25.13;;
53757;SDS011;39674;59.860;30.672;2022-08-25T08:05:15;35.67;;;22.03;;
53757;SDS011;39674;59.860;30.672;2022-08-25T08:08:55;38.00;;;24.05;;
53757;SDS011;39674;59.860;30.672;2022-08-25T08:12:06;32.58;;;21.20;;
53757;SDS011;39674;59.860;30.672;2022-08-25T08:15:20;36.33;;;23.07;;
53757;SDS011;39674;59.860;30.672;2022-08-25T08:18:42;32.35;;;18.65;;
53757;SDS011;39674;59.860;30.672;2022-08-25T08:30:03;39.45;;;22.02;;
53757;SDS011;39674;59.860;30.672;2022-08-25T08:33:24;41.83;;;23.80;;
53757;SDS011;39674;59.860;30.672;2022-08-25T08:36:33;36.35;;;23.02;;
53757;SDS011;39674;59.860;30.672;2022-08-25T09:01:38;35.38;;;19.95;;
53757;SDS011;39674;59.860;30.672;2022-08-25T09:12:29;30.33;;;17.35;;
53757;SDS011;39674;59.860;30.672;2022-08-25T09:24:46;33.10;;;19.40;;
53757;SDS011;39674;59.860;30.672;2022-08-25T11:36:29;34.53;;;11.25;;
53757;SDS011;39674;59.860;30.672;2022-08-25T11:44:12;21.65;;;10.48;;
53757;SDS011;39674;59.860;30.672;2022-08-25T11:48:50;21.50;;;10.05;;
53757;SDS011;39674;59.860;30.672;2022-08-25T11:51:51;28.67;;;9.85;;
53757;SDS011;39674;59.860;30.672;2022-08-25T11:55:16;26.60;;;10.18;;
53757;SDS011;39674;59.860;30.672;2022-08-25T11:58:15;30.48;;;11.00;;
53757;SDS011;39674;59.860;30.672;2022-08-25T12:35:09;19.45;;;7.85;;
53757;SDS011;39674;59.860;30.672;2022-08-25T12:38:09;20.38;;;8.10;;
53757;SDS011;39674;59.860;30.672;2022-08-25T12:40:57;18.45;;;8.45;;
53757;SDS011;39674;59.860;30.672;2022-08-25T12:44:08;23.35;;;8.40;;
53757;SDS011;39674;59.860;30.672;2022-08-25T12:47:10;21.52;;;7.68;;
53757;SDS011;39674;59.860;30.672;2022-08-25T12:53:47;13.18;;;7.03;;
53757;SDS011;39674;59.860;30.672;2022-08-25T12:56:54;21.90;;;6.53;;
53757;SDS011;39674;59.860;30.672;2022-08-25T12:59:51;19.27;;;6.45;;
53757;SDS011;39674;59.860;30.672;2022-08-25T13:03:01;15.60;;;6.57;;
53757;SDS011;39674;59.860;30.672;2022-08-25T13:06:37;14.60;;;6.32;;
53757;SDS011;39674;59.860;30.672;2022-08-25T13:14:03;15.30;;;5.82;;
53757;SDS011;39674;59.860;30.672;2022-08-25T13:16:20;17.35;;;6.22;;
53757;SDS011;39674;59.860;30.672;2022-08-25T13:18:55;25.52;;;5.43;;
53757;SDS011;39674;59.860;30.672;2022-08-25T13:21:27;16.48;;;6.18;;
53757;SDS011;39674;59.860;30.672;2022-08-25T13:24:23;12.43;;;4.25;;
53757;SDS011;39674;59.860;30.672;2022-08-25T13:27:04;14.77;;;5.13;;
53757;SDS011;39674;59.860;30.672;2022-08-25T13:29:48;13.07;;;4.68;;
53757;SDS011;39674;59.860;30.672;2022-08-25T13:32:29;11.95;;;4.43;;
53757;SDS011;39674;59.860;30.672;2022-08-25T13:35:16;13.18;;;4.20;;
53757;SDS011;39674;59.860;30.672;2022-08-25T13:37:50;12.40;;;4.55;;
53757;SDS011;39674;59.860;30.672;2022-08-25T13:41:07;12.63;;;4.28;;
53757;SDS011;39674;59.860;30.672;2022-08-25T13:43:57;16.25;;;4.47;;
53757;SDS011;39674;59.860;30.672;2022-08-25T13:46:38;13.52;;;5.03;;
53757;SDS011;39674;59.860;30.672;2022-08-25T13:49:10;11.88;;;5.05;;
53757;SDS011;39674;59.860;30.672;2022-08-25T13:51:49;15.15;;;5.40;;
53757;SDS011;39674;59.860;30.672;2022-08-25T13:54:34;10.90;;;5.20;;
53757;SDS011;39674;59.860;30.672;2022-08-25T13:57:12;10.18;;;4.00;;
53757;SDS011;39674;59.860;30.672;2022-08-25T13:59:47;13.32;;;4.65;;
53757;SDS011;39674;59.860;30.672;2022-08-25T14:05:27;7.80;;;3.13;;
53757;SDS011;39674;59.860;30.672;2022-08-25T14:08:06;10.20;;;3.53;;
53757;SDS011;39674;59.860;30.672;2022-08-25T14:11:05;10.27;;;3.22;;
53757;SDS011;39674;59.860;30.672;2022-08-25T14:13:41;8.25;;;3.65;;
53757;SDS011;39674;59.860;30.672;2022-08-25T14:16:14;7.60;;;4.50;;
53757;SDS011;39674;59.860;30.672;2022-08-25T14:18:52;7.88;;;3.25;;
53757;SDS011;39674;59.860;30.672;2022-08-25T14:21:34;6.22;;;3.20;;
53757;SDS011;39674;59.860;30.672;2022-08-25T14:24:05;12.30;;;3.53;;
53757;SDS011;39674;59.860;30.672;2022-08-25T14:26:39;12.18;;;3.67;;
53757;SDS011;39674;59.860;30.672;2022-08-25T14:29:13;6.68;;;3.30;;
53757;SDS011;39674;59.860;30.672;2022-08-25T14:31:43;11.95;;;3.55;;
53757;SDS011;39674;59.860;30.672;2022-08-25T14:34:14;12.25;;;3.22;;
53757;SDS011;39674;59.860;30.672;2022-08-25T14:36:57;6.80;;;3.25;;
53757;SDS011;39674;59.860;30.672;2022-08-25T14:39:32;11.23;;;3.75;;
53757;SDS011;39674;59.860;30.672;2022-08-25T14:42:07;15.35;;;3.00;;
53757;SDS011;39674;59.860;30.672;2022-08-25T14:44:38;10.32;;;2.90;;
53757;SDS011;39674;59.860;30.672;2022-08-25T14:47:09;6.07;;;2.83;;
53757;SDS011;39674;59.860;30.672;2022-08-25T14:49:39;11.75;;;3.67;;
53757;SDS011;39674;59.860;30.672;2022-08-25T14:52:15;18.73;;;3.30;;
53757;SDS011;39674;59.860;30.672;2022-08-25T14:54:55;7.75;;;3.22;;
53757;SDS011;39674;59.860;30.672;2022-08-25T14:57:27;9.63;;;3.88;;
53757;SDS011;39674;59.860;30.672;2022-08-25T15:00:07;7.50;;;2.75;;
53757;SDS011;39674;59.860;30.672;2022-08-25T15:02:38;8.35;;;4.38;;
53757;SDS011;39674;59.860;30.672;2022-08-25T15:05:22;16.60;;;4.93;;
53757;SDS011;39674;59.860;30.672;2022-08-25T15:07:53;13.45;;;3.80;;
53757;SDS011;39674;59.860;30.672;2022-08-25T15:10:45;12.50;;;4.00;;
53757;SDS011;39674;59.860;30.672;2022-08-25T15:13:36;4.35;;;2.30;;
53757;SDS011;39674;59.860;30.672;2022-08-25T15:16:07;8.25;;;2.47;;
53757;SDS011;39674;59.860;30.672;2022-08-25T15:21:38;7.82;;;2.50;;
53757;SDS011;39674;59.860;30.672;2022-08-25T15:24:08;7.50;;;2.95;;
53757;SDS011;39674;59.860;30.672;2022-08-25T15:26:43;8.25;;;3.70;;
53757;SDS011;39674;59.860;30.672;2022-08-25T15:29:18;7.05;;;3.45;;
53757;SDS011;39674;59.860;30.672;2022-08-25T15:31:49;10.15;;;3.13;;
53757;SDS011;39674;59.860;30.672;2022-08-25T15:34:27;7.68;;;3.97;;
53757;SDS011;39674;59.860;30.672;2022-08-25T15:37:05;9.73;;;3.97;;
53757;SDS011;39674;59.860;30.672;2022-08-25T15:39:43;10.70;;;4.28;;
53757;SDS011;39674;59.860;30.672;2022-08-25T15:42:16;8.13;;;3.85;;
53757;SDS011;39674;59.860;30.672;2022-08-25T15:44:51;9.32;;;3.40;;
53757;SDS011;39674;59.860;30.672;2022-08-25T15:47:24;4.28;;;2.70;;
53757;SDS011;39674;59.860;30.672;2022-08-25T15:49:59;2.88;;;2.03;;
53757;SDS011;39674;59.860;30.672;2022-08-25T15:52:49;11.30;;;3.05;;
53757;SDS011;39674;59.860;30.672;2022-08-25T15:55:19;8.00;;;2.10;;
53757;SDS011;39674;59.860;30.672;2022-08-25T15:58:01;6.20;;;2.22;;
53757;SDS011;39674;59.860;30.672;2022-08-25T16:00:51;4.25;;;2.22;;
53757;SDS011;39674;59.860;30.672;2022-08-25T16:03:21;14.93;;;3.10;;
53757;SDS011;39674;59.860;30.672;2022-08-25T16:05:54;9.50;;;3.00;;
53757;SDS011;39674;59.860;30.672;2022-08-25T16:08:59;4.88;;;2.50;;
53757;SDS011;39674;59.860;30.672;2022-08-25T16:12:09;7.18;;;2.92;;
53757;SDS011;39674;59.860;30.672;2022-08-25T16:14:50;5.43;;;3.00;;
53757;SDS011;39674;59.860;30.672;2022-08-25T16:17:29;4.32;;;2.65;;
53757;SDS011;39674;59.860;30.672;2022-08-25T16:20:02;7.32;;;2.00;;
53757;SDS011;39674;59.860;30.672;2022-08-25T16:22:31;6.05;;;1.98;;
53757;SDS011;39674;59.860;30.672;2022-08-25T16:25:09;3.03;;;2.15;;
53757;SDS011;39674;59.860;30.672;2022-08-25T16:28:01;4.25;;;2.55;;
53757;SDS011;39674;59.860;30.672;2022-08-25T16:30:32;4.15;;;2.40;;
53757;SDS011;39674;59.860;30.672;2022-08-25T16:33:07;6.07;;;2.53;;
53757;SDS011;39674;59.860;30.672;2022-08-25T16:35:56;6.13;;;3.00;;
53757;SDS011;39674;59.860;30.672;2022-08-25T16:38:40;6.70;;;3.53;;
53757;SDS011;39674;59.860;30.672;2022-08-25T16:41:21;11.27;;;4.10;;
53757;SDS011;39674;59.860;30.672;2022-08-25T16:44:03;5.95;;;3.65;;
53757;SDS011;39674;59.860;30.672;2022-08-25T16:46:54;6.60;;;3.70;;
53757;SDS011;39674;59.860;30.672;2022-08-25T16:49:35;7.40;;;3.63;;
53757;SDS011;39674;59.860;30.672;2022-08-25T16:52:14;13.45;;;3.80;;
53757;SDS011;39674;59.860;30.672;2022-08-25T16:55:05;9.80;;;3.63;;
53757;SDS011;39674;59.860;30.672;2022-08-25T16:57:46;8.57;;;4.63;;
53757;SDS011;39674;59.860;30.672;2022-08-25T17:00:43;8.82;;;4.10;;
53757;SDS011;39674;59.860;30.672;2022-08-25T17:03:17;7.22;;;2.97;;
53757;SDS011;39674;59.860;30.672;2022-08-25T18:18:03;2.80;;;2.50;;
53757;SDS011;39674;59.860;30.672;2022-08-25T18:21:50;1.85;;;1.73;;
53757;SDS011;39674;59.860;30.672;2022-08-25T18:36:52;3.80;;;1.70;;
53757;SDS011;39674;59.860;30.672;2022-08-25T19:04:03;1.65;;;1.50;;
53757;SDS011;39674;59.860;30.672;2022-08-25T19:50:48;1.30;;;0.90;;
53757;SDS011;39674;59.860;30.672;2022-08-25T19:58:59;0.80;;;0.80;;
53757;SDS011;39674;59.860;30.672;2022-08-25T20:21:58;1.00;;;0.70;;
53757;SDS011;39674;59.860;30.672;2022-08-25T20:25:50;1.73;;;0.57;;
53757;SDS011;39674;59.860;30.672;2022-08-25T20:28:21;1.17;;;0.70;;
53757;SDS011;39674;59.860;30.672;2022-08-25T20:54:41;3.40;;;0.75;;
53757;SDS011;39674;59.860;30.672;2022-08-25T20:57:12;5.47;;;0.75;;
53757;SDS011;39674;59.860;30.672;2022-08-25T21:00:24;1.88;;;0.70;;
53757;SDS011;39674;59.860;30.672;2022-08-25T21:03:08;2.92;;;1.00;;
53757;SDS011;39674;59.860;30.672;2022-08-25T21:06:36;3.55;;;0.75;;
53757;SDS011;39674;59.860;30.672;2022-08-25T21:09:26;1.00;;;0.60;;
53757;SDS011;39674;59.860;30.672;2022-08-25T21:15:07;1.65;;;0.50;;
53757;SDS011;39674;59.860;30.672;2022-08-25T21:18:11;3.67;;;0.55;;
53757;SDS011;39674;59.860;30.672;2022-08-25T21:24:53;1.45;;;0.60;;
53757;SDS011;39674;59.860;30.672;2022-08-25T21:27:46;0.85;;;0.50;;
53757;SDS011;39674;59.860;30.672;2022-08-25T21:33:07;3.97;;;0.77;;
53757;SDS011;39674;59.860;30.672;2022-08-25T21:35:54;1.85;;;0.70;;
53757;SDS011;39674;59.860;30.672;2022-08-25T21:39:05;1.45;;;0.65;;
53757;SDS011;39674;59.860;30.672;2022-08-25T21:42:22;1.48;;;0.57;;
53757;SDS011;39674;59.860;30.672;2022-08-25T21:48:28;2.20;;;0.50;;
53757;SDS011;39674;59.860;30.672;2022-08-25T21:51:28;1.38;;;0.50;;
53757;SDS011;39674;59.860;30.672;2022-08-25T21:54:46;2.35;;;0.70;;
53757;SDS011;39674;59.860;30.672;2022-08-25T21:57:26;2.95;;;0.40;;
53757;SDS011;39674;59.860;30.672;2022-08-25T22:00:25;0.77;;;0.52;;
53757;SDS011;39674;59.860;30.672;2022-08-25T22:03:08;1.37;;;0.70;;
53757;SDS011;39674;59.860;30.672;2022-08-25T22:05:41;3.97;;;0.55;;
53757;SDS011;39674;59.860;30.672;2022-08-25T22:08:19;5.55;;;0.50;;
53757;SDS011;39674;59.860;30.672;2022-08-25T22:10:51;1.10;;;0.60;;
53757;SDS011;39674;59.860;30.672;2022-08-25T22:13:22;2.05;;;0.60;;
53757;SDS011;39674;59.860;30.672;2022-08-25T22:15:55;1.08;;;0.60;;
53757;SDS011;39674;59.860;30.672;2022-08-25T22:18:39;1.88;;;0.60;;
53757;SDS011;39674;59.860;30.672;2022-08-25T22:21:21;2.92;;;0.60;;
53757;SDS011;39674;59.860;30.672;2022-08-25T22:23:55;1.70;;;0.43;;
53757;SDS011;39674;59.860;30.672;2022-08-25T22:26:27;2.50;;;0.70;;
53757;SDS011;39674;59.860;30.672;2022-08-25T22:29:02;4.68;;;0.70;;
53757;SDS011;39674;59.860;30.672;2022-08-25T22:32:02;0.55;;;0.40;;
53757;SDS011;39674;59.860;30.672;2022-08-25T22:34:33;0.52;;;0.50;;
53757;SDS011;39674;59.860;30.672;2022-08-25T22:37:02;1.15;;;0.40;;
53757;SDS011;39674;59.860;30.672;2022-08-25T22:39:35;1.48;;;0.50;;
53757;SDS011;39674;59.860;30.672;2022-08-25T22:45:18;1.05;;;0.50;;
53757;SDS011;39674;59.860;30.672;2022-08-25T22:48:02;1.30;;;0.50;;
53757;SDS011;39674;59.860;30.672;2022-08-25T22:50:36;3.72;;;0.50;;
53757;SDS011;39674;59.860;30.672;2022-08-25T22:53:15;2.50;;;0.60;;
53757;SDS011;39674;59.860;30.672;2022-08-25T22:58:28;6.13;;;0.80;;
53757;SDS011;39674;59.860;30.672;2022-08-25T23:01:00;1.90;;;0.60;;
53757;SDS011;39674;59.860;30.672;2022-08-25T23:06:04;3.58;;;0.80;;
53757;SDS011;39674;59.860;30.672;2022-08-25T23:08:38;0.70;;;0.50;;
53757;SDS011;39674;59.860;30.672;2022-08-25T23:11:15;1.70;;;0.60;;
53757;SDS011;39674;59.860;30.672;2022-08-25T23:13:45;3.05;;;0.60;;
53757;SDS011;39674;59.860;30.672;2022-08-25T23:16:16;1.02;;;0.70;;
53757;SDS011;39674;59.860;30.672;2022-08-25T23:18:46;12.25;;;0.70;;
53757;SDS011;39674;59.860;30.672;2022-08-25T23:21:17;6.60;;;0.40;;
53757;SDS011;39674;59.860;30.672;2022-08-25T23:24:06;2.60;;;0.75;;
53757;SDS011;39674;59.860;30.672;2022-08-25T23:26:38;2.45;;;0.80;;
53757;SDS011;39674;59.860;30.672;2022-08-25T23:29:09;3.83;;;1.40;;
53757;SDS011;39674;59.860;30.672;2022-08-25T23:31:46;10.20;;;1.67;;
53757;SDS011;39674;59.860;30.672;2022-08-25T23:34:29;8.13;;;2.83;;
53757;SDS011;39674;59.860;30.672;2022-08-25T23:37:08;5.13;;;3.33;;
53757;SDS011;39674;59.860;30.672;2022-08-25T23:39:40;4.97;;;4.43;;
53757;SDS011;39674;59.860;30.672;2022-08-25T23:42:12;8.77;;;5.35;;
53757;SDS011;39674;59.860;30.672;2022-08-25T23:44:41;14.07;;;7.03;;
53757;SDS011;39674;59.860;30.672;2022-08-25T23:47:15;6.75;;;6.05;;
53757;SDS011;39674;59.860;30.672;2022-08-25T23:49:53;13.98;;;4.65;;
53757;SDS011;39674;59.860;30.672;2022-08-25T23:52:22;6.57;;;3.78;;
53757;SDS011;39674;59.860;30.672;2022-08-25T23:55:00;4.00;;;3.45;;
53757;SDS011;39674;59.860;30.672;2022-08-25T23:57:45;12.30;;;3.60;;
